createdAt,value
2019-04-10T00:01:53.636Z,10.67
2019-04-10T00:04:23.049Z,11.07
2019-04-10T00:06:52.215Z,10.70
2019-04-10T00:09:21.049Z,11.53
2019-04-10T00:11:49.989Z,11.00
2019-04-10T00:14:18.601Z,10.80
2019-04-10T00:16:47.269Z,9.33
2019-04-10T00:19:15.751Z,10.90
2019-04-10T00:21:45.159Z,10.47
2019-04-10T00:24:13.842Z,11.30
2019-04-10T00:26:42.316Z,11.67
2019-04-10T00:29:10.753Z,9.97
2019-04-10T00:31:40.210Z,10.97
2019-04-10T00:34:09.441Z,9.87
2019-04-10T00:36:38.202Z,9.90
2019-04-10T00:39:08.626Z,9.97
2019-04-10T00:41:38.386Z,10.67
2019-04-10T00:44:07.821Z,11.50
2019-04-10T00:46:36.756Z,11.67
2019-04-10T00:49:05.232Z,11.27
2019-04-10T00:51:33.725Z,11.07
2019-04-10T00:54:02.229Z,11.30
2019-04-10T00:56:30.689Z,11.83
2019-04-10T00:58:59.739Z,12.53
2019-04-10T01:01:28.196Z,12.47
2019-04-10T01:03:56.670Z,13.33
2019-04-10T01:06:26.181Z,15.97
2019-04-10T01:08:55.213Z,18.03
2019-04-10T01:11:23.703Z,28.83
2019-04-10T01:13:53.617Z,33.57
2019-04-10T01:16:23.100Z,38.63
2019-04-10T01:18:51.676Z,38.13
2019-04-10T01:21:20.192Z,39.07
2019-04-10T01:23:49.107Z,40.73
2019-04-10T01:26:17.704Z,40.97
2019-04-10T01:28:47.102Z,41.47
2019-04-10T01:31:17.072Z,41.03
2019-04-10T01:33:46.428Z,38.73
2019-04-10T01:36:15.976Z,42.20
2019-04-10T01:38:44.547Z,41.43
2019-04-10T01:41:13.044Z,40.63
2019-04-10T01:43:41.471Z,40.83
2019-04-10T01:46:10.311Z,42.07
2019-04-10T01:48:39.728Z,44.17
2019-04-10T01:51:08.715Z,41.37
2019-04-10T01:53:37.688Z,43.27
2019-04-10T01:56:20.452Z,44.37
2019-04-10T01:58:37.654Z,43.60
2019-04-10T02:01:08.101Z,44.93
2019-04-10T02:03:40.378Z,44.53
2019-04-10T02:06:09.222Z,43.33
2019-04-10T02:08:38.236Z,42.80
2019-04-10T02:11:07.270Z,44.17
2019-04-10T02:13:36.083Z,43.87
2019-04-10T02:16:04.758Z,44.17
2019-04-10T02:18:33.257Z,42.20
2019-04-10T02:21:01.695Z,42.87
2019-04-10T02:23:30.239Z,41.80
2019-04-10T02:25:58.785Z,40.87
2019-04-10T02:28:27.255Z,42.70
2019-04-10T02:30:56.685Z,41.63
2019-04-10T02:33:25.517Z,41.43
2019-04-10T02:35:56.993Z,40.27
2019-04-10T02:38:40.092Z,41.50
2019-04-10T02:40:57.390Z,42.70
2019-04-10T02:43:27.287Z,42.43
2019-04-10T02:45:56.312Z,41.37
2019-04-10T02:48:27.479Z,42.27
2019-04-10T02:50:57.594Z,41.83
2019-04-10T02:53:27.628Z,40.07
2019-04-10T02:55:58.154Z,40.23
2019-04-10T02:58:26.977Z,40.67
2019-04-10T03:00:56.306Z,41.37
2019-04-10T03:03:25.490Z,40.00
2019-04-10T03:05:54.369Z,40.13
2019-04-10T03:08:37.123Z,37.90
2019-04-10T03:10:59.068Z,39.53
2019-04-10T03:13:23.920Z,39.00
2019-04-10T03:15:53.564Z,39.57
2019-04-10T03:18:22.998Z,37.97
2019-04-10T03:20:51.624Z,40.33
2019-04-10T03:23:21.058Z,40.73
2019-04-10T03:25:50.911Z,39.60
2019-04-10T03:28:19.555Z,40.00
2019-04-10T03:30:49.315Z,40.23
2019-04-10T03:33:31.093Z,41.03
2019-04-10T03:35:59.055Z,42.60
2019-04-10T03:38:27.495Z,42.23
2019-04-10T03:40:55.952Z,41.80
2019-04-10T03:43:24.438Z,42.43
2019-04-10T03:45:53.005Z,41.27
2019-04-10T03:48:21.482Z,40.10
2019-04-10T03:50:50.198Z,41.03
2019-04-10T03:53:20.164Z,39.10
2019-04-10T03:55:49.415Z,38.57
2019-04-10T03:58:19.679Z,39.73
2019-04-10T04:00:48.518Z,41.67
2019-04-10T04:03:18.292Z,42.30
2019-04-10T04:05:47.091Z,43.53
2019-04-10T04:08:15.539Z,43.03
2019-04-10T04:10:44.705Z,43.40
2019-04-10T04:13:13.410Z,42.67
2019-04-10T04:15:42.158Z,41.70
2019-04-10T04:18:10.976Z,39.90
2019-04-10T04:20:39.974Z,41.23
2019-04-10T04:23:09.310Z,40.47
2019-04-10T04:25:38.677Z,41.93
2019-04-10T04:28:07.182Z,40.73
2019-04-10T04:30:36.040Z,41.50
2019-04-10T04:33:04.853Z,42.97
2019-04-10T04:35:33.313Z,40.73
2019-04-10T04:38:02.549Z,41.53
2019-04-10T04:40:31.194Z,43.90
2019-04-10T04:43:00.149Z,43.40
2019-04-10T04:45:28.693Z,43.00
2019-04-10T04:47:57.626Z,42.20
2019-04-10T04:50:27.062Z,43.53
2019-04-10T04:52:55.683Z,43.13
2019-04-10T04:55:24.124Z,43.17
2019-04-10T04:57:53.479Z,40.80
2019-04-10T05:00:22.143Z,43.70
2019-04-10T05:02:55.722Z,42.40
2019-04-10T05:05:25.237Z,42.40
2019-04-10T05:07:59.327Z,43.90
2019-04-10T05:10:25.129Z,42.80
2019-04-10T05:12:54.047Z,42.90
2019-04-10T05:15:22.679Z,44.73
2019-04-10T05:17:51.802Z,45.40
2019-04-10T05:20:20.285Z,45.23
2019-04-10T05:22:49.214Z,46.23
2019-04-10T05:25:19.042Z,44.90
2019-04-10T05:27:49.022Z,46.20
2019-04-10T05:30:18.387Z,44.90
2019-04-10T05:32:47.316Z,47.23
2019-04-10T05:35:16.995Z,46.00
2019-04-10T05:37:46.293Z,44.47
2019-04-10T05:40:15.259Z,45.63
2019-04-10T05:42:44.971Z,44.57
2019-04-10T05:45:14.846Z,45.87
2019-04-10T05:47:44.455Z,48.17
2019-04-10T05:50:13.090Z,48.17
2019-04-10T05:52:41.532Z,45.80
2019-04-10T05:55:10.314Z,43.90
2019-04-10T05:57:38.908Z,44.30
2019-04-10T06:00:10.411Z,44.90
2019-04-10T06:02:39.821Z,44.77
2019-04-10T06:05:09.763Z,45.87
2019-04-10T06:07:38.307Z,45.23
2019-04-10T06:10:10.553Z,44.83
2019-04-10T06:12:39.552Z,44.67
2019-04-10T06:15:08.815Z,45.27
2019-04-10T06:17:38.468Z,44.30
2019-04-10T06:20:09.178Z,43.67
2019-04-10T06:22:38.868Z,44.83
2019-04-10T06:25:11.109Z,44.37
2019-04-10T06:27:40.819Z,46.47
2019-04-10T06:30:10.070Z,45.00
2019-04-10T06:32:39.644Z,44.87
2019-04-10T06:35:09.186Z,43.73
2019-04-10T06:37:38.108Z,42.30
2019-04-10T06:40:16.425Z,42.23
2019-04-10T06:42:46.172Z,41.33
2019-04-10T06:45:09.690Z,39.47
2019-04-10T06:47:39.903Z,41.93
2019-04-10T06:50:10.570Z,41.23
2019-04-10T06:52:39.278Z,40.37
2019-04-10T06:55:09.191Z,39.50
2019-04-10T06:57:46.872Z,40.00
2019-04-10T07:00:13.718Z,38.37
2019-04-10T07:02:41.093Z,39.63
2019-04-10T07:05:12.408Z,38.67
2019-04-10T07:07:50.915Z,37.33
2019-04-10T07:10:22.530Z,35.73
2019-04-10T07:12:42.074Z,35.37
2019-04-10T07:15:12.463Z,34.20
2019-04-10T07:17:41.867Z,31.70
2019-04-10T07:20:15.018Z,33.10
2019-04-10T07:22:46.536Z,34.00
2019-04-10T07:25:14.290Z,32.07
2019-04-10T07:27:44.071Z,34.07
2019-04-10T07:30:13.994Z,32.33
2019-04-10T07:32:47.173Z,31.47
2019-04-10T07:35:19.268Z,32.17
2019-04-10T07:37:44.817Z,31.30
2019-04-10T07:40:14.354Z,30.20
2019-04-10T07:42:43.383Z,32.47
2019-04-10T07:45:13.004Z,30.27
2019-04-10T07:47:42.020Z,31.13
2019-04-10T07:50:12.195Z,30.40
2019-04-10T07:52:41.415Z,29.20
2019-04-10T07:55:10.847Z,29.50
2019-04-10T07:57:40.503Z,30.30
2019-04-10T08:00:11.310Z,28.93
2019-04-10T08:02:40.576Z,28.20
2019-04-10T08:05:10.211Z,28.77
2019-04-10T08:07:39.305Z,28.77
2019-04-10T08:10:10.116Z,27.30
2019-04-10T08:12:45.992Z,25.57
2019-04-10T08:15:09.424Z,27.93
2019-04-10T08:17:38.870Z,26.27
2019-04-10T08:20:09.899Z,27.10
2019-04-10T08:22:39.341Z,25.67
2019-04-10T08:25:08.965Z,25.60
2019-04-10T08:27:38.465Z,25.67
2019-04-10T08:30:10.779Z,25.23
2019-04-10T08:32:50.829Z,24.50
2019-04-10T08:35:09.199Z,24.67
2019-04-10T08:37:38.925Z,25.47
2019-04-10T08:40:11.420Z,24.50
2019-04-10T08:42:43.438Z,24.30
2019-04-10T08:45:11.344Z,23.33
2019-04-10T08:47:40.168Z,23.80
2019-04-10T08:50:09.763Z,23.13
2019-04-10T08:52:39.084Z,24.37
2019-04-10T08:55:10.005Z,23.37
2019-04-10T08:57:38.842Z,23.27
2019-04-10T09:00:10.062Z,22.90
2019-04-10T09:02:38.786Z,23.17
2019-04-10T09:05:09.252Z,22.57
2019-04-10T09:07:38.283Z,21.87
2019-04-10T09:10:07.302Z,22.43
2019-04-10T09:12:35.760Z,21.07
2019-04-10T09:15:05.957Z,21.73
2019-04-10T09:17:35.430Z,21.40
2019-04-10T09:20:06.642Z,21.77
2019-04-10T09:22:55.162Z,21.10
2019-04-10T09:25:07.032Z,21.03
2019-04-10T09:27:35.940Z,20.47
2019-04-10T09:30:07.239Z,22.07
2019-04-10T09:32:36.790Z,21.43
2019-04-10T09:35:08.730Z,22.53
2019-04-10T09:37:37.959Z,21.23
2019-04-10T09:40:08.465Z,20.67
2019-04-10T09:42:36.916Z,21.37
2019-04-10T09:45:06.427Z,20.23
2019-04-10T09:47:34.918Z,19.97
2019-04-10T09:50:04.193Z,20.63
2019-04-10T09:52:32.647Z,21.13
2019-04-10T09:55:01.114Z,20.03
2019-04-10T09:57:29.904Z,20.60
2019-04-10T09:59:58.354Z,20.70
2019-04-10T10:02:27.456Z,19.90
2019-04-10T10:04:56.426Z,19.93
2019-04-10T10:07:24.856Z,19.33
2019-04-10T10:09:53.324Z,20.10
2019-04-10T10:12:21.767Z,19.03
2019-04-10T10:14:50.249Z,19.33
2019-04-10T10:17:18.704Z,19.20
2019-04-10T10:19:48.070Z,18.63
2019-04-10T10:22:16.906Z,18.17
2019-04-10T10:24:46.808Z,18.00
2019-04-10T10:27:15.684Z,18.20
2019-04-10T10:29:44.395Z,17.73
2019-04-10T10:32:12.928Z,18.70
2019-04-10T10:34:41.375Z,18.53
2019-04-10T10:37:10.752Z,18.10
2019-04-10T10:39:39.232Z,17.67
2019-04-10T10:42:07.826Z,17.23
2019-04-10T10:44:36.320Z,16.67
2019-04-10T10:47:06.201Z,17.87
2019-04-10T10:49:34.847Z,16.40
2019-04-10T10:52:12.315Z,17.00
2019-04-10T10:54:41.146Z,16.77
2019-04-10T10:57:10.934Z,16.67
2019-04-10T10:59:39.836Z,16.20
2019-04-10T11:02:08.717Z,15.40
2019-04-10T11:04:37.852Z,16.63
2019-04-10T11:07:06.992Z,16.20
2019-04-10T11:09:36.765Z,16.03
2019-04-10T11:12:16.491Z,16.70
2019-04-10T11:14:45.584Z,18.27
2019-04-10T11:17:14.242Z,17.63
2019-04-10T11:19:43.420Z,17.17
2019-04-10T11:22:14.419Z,17.73
2019-04-10T11:24:44.493Z,17.37
2019-04-10T11:27:14.315Z,16.20
2019-04-10T11:29:45.270Z,17.00
2019-04-10T11:32:16.344Z,15.87
2019-04-10T11:34:56.650Z,17.37
2019-04-10T11:39:56.576Z,17.07
2019-04-10T11:42:26.415Z,16.87
2019-04-10T11:44:55.502Z,17.07
2019-04-10T11:47:25.240Z,16.87
2019-04-10T11:49:57.186Z,17.20
2019-04-10T11:52:33.754Z,16.33
2019-04-10T11:55:05.106Z,16.43
2019-04-10T11:57:26.426Z,15.93
2019-04-10T11:59:56.944Z,15.63
2019-04-10T12:02:28.186Z,15.87
2019-04-10T12:07:58.477Z,15.83
2019-04-10T12:12:28.047Z,15.63
2019-04-10T12:14:57.892Z,15.30
2019-04-10T12:17:27.612Z,15.57
2019-04-10T12:20:09.625Z,14.70
2019-04-10T12:22:48.080Z,15.60
2019-04-10T12:25:16.858Z,14.37
2019-04-10T12:27:45.398Z,13.93
2019-04-10T12:30:15.182Z,14.70
2019-04-10T12:32:45.897Z,14.60
2019-04-10T12:35:15.044Z,14.37
2019-04-10T12:37:59.400Z,14.90
2019-04-10T12:40:21.534Z,14.37
2019-04-10T12:42:50.412Z,14.10
2019-04-10T12:45:20.031Z,13.90
2019-04-10T12:47:48.583Z,13.13
2019-04-10T12:50:17.064Z,13.40
2019-04-10T12:52:45.528Z,13.13
2019-04-10T12:55:14.477Z,14.30
2019-04-10T12:57:43.505Z,13.63
2019-04-10T13:00:16.000Z,12.70
2019-04-10T13:02:44.868Z,12.93
2019-04-10T13:05:13.836Z,14.80
2019-04-10T13:07:43.481Z,13.67
2019-04-10T13:10:12.832Z,12.93
2019-04-10T13:12:41.770Z,13.63
2019-04-10T13:15:11.583Z,13.40
2019-04-10T13:17:40.734Z,12.90
2019-04-10T13:20:11.661Z,13.37
2019-04-10T13:22:40.265Z,14.50
2019-04-10T13:25:09.940Z,13.53
2019-04-10T13:27:39.483Z,13.10
2019-04-10T13:30:12.914Z,12.77
2019-04-10T13:32:42.438Z,12.63
2019-04-10T13:35:11.453Z,13.10
2019-04-10T13:37:41.299Z,13.10
2019-04-10T13:40:11.247Z,12.87
2019-04-10T13:42:41.068Z,12.53
2019-04-10T13:45:11.062Z,13.87
2019-04-10T13:47:40.778Z,14.10
2019-04-10T13:50:10.653Z,14.57
2019-04-10T13:52:40.931Z,15.53
2019-04-10T13:55:18.948Z,13.13
2019-04-10T13:57:47.721Z,13.73
2019-04-10T14:00:39.850Z,13.30
2019-04-10T14:03:06.923Z,14.73
2019-04-10T14:05:35.470Z,14.73
2019-04-10T14:08:04.868Z,14.87
2019-04-10T14:10:35.190Z,14.77
2019-04-10T14:13:03.805Z,14.30
2019-04-10T14:15:33.721Z,12.77
2019-04-10T14:18:02.426Z,13.73
2019-04-10T14:20:31.248Z,13.20
2019-04-10T14:23:16.751Z,13.47
2019-04-10T14:26:02.270Z,12.73
2019-04-10T14:28:33.343Z,12.93
2019-04-10T14:31:04.208Z,13.90
2019-04-10T14:33:33.075Z,12.70
2019-04-10T14:36:01.973Z,12.80
2019-04-10T14:38:30.774Z,12.10
2019-04-10T14:40:59.531Z,11.93
2019-04-10T14:43:28.443Z,12.50
2019-04-10T14:45:57.647Z,12.27
2019-04-10T14:48:26.229Z,12.03
2019-04-10T14:50:54.729Z,12.10
2019-04-10T14:53:23.266Z,12.10
2019-04-10T14:55:51.737Z,12.60
2019-04-10T14:58:25.178Z,13.20
2019-04-10T15:00:50.976Z,13.73
2019-04-10T15:03:22.362Z,13.30
2019-04-10T15:05:53.955Z,13.67
2019-04-10T15:08:21.775Z,13.87
2019-04-10T15:10:50.590Z,13.43
2019-04-10T15:13:21.257Z,13.53
2019-04-10T15:15:50.289Z,12.53
2019-04-10T15:18:19.109Z,13.57
2019-04-10T15:20:47.729Z,13.23
2019-04-10T15:23:16.182Z,13.20
2019-04-10T15:25:44.636Z,12.97
2019-04-10T15:28:13.968Z,12.40
2019-04-10T15:30:42.806Z,13.00
2019-04-10T15:33:12.137Z,12.87
2019-04-10T15:35:41.811Z,12.90
2019-04-10T15:38:11.617Z,12.93
2019-04-10T15:40:42.009Z,12.87
2019-04-10T15:43:10.816Z,13.47
2019-04-10T15:45:39.966Z,13.53
2019-04-10T15:48:08.772Z,14.53
2019-04-10T15:50:37.255Z,13.63
2019-04-10T15:53:06.170Z,14.90
2019-04-10T15:55:34.728Z,13.37
2019-04-10T15:58:04.057Z,13.53
2019-04-10T16:00:34.976Z,13.43
2019-04-10T16:03:04.874Z,13.23
2019-04-10T16:05:33.485Z,13.53
2019-04-10T16:08:02.990Z,13.10
2019-04-10T16:10:33.946Z,13.50
2019-04-10T16:13:16.515Z,13.80
2019-04-10T16:15:45.207Z,13.27
2019-04-10T16:18:15.638Z,12.47
2019-04-10T16:20:45.883Z,13.47
2019-04-10T16:23:18.944Z,11.60
2019-04-10T16:25:54.459Z,9.60
2019-04-10T16:28:23.350Z,9.57
2019-04-10T16:30:51.817Z,9.20
2019-04-10T16:33:20.288Z,8.67
2019-04-10T16:35:48.790Z,9.40
2019-04-10T16:38:17.348Z,9.17
2019-04-10T16:40:45.992Z,8.83
2019-04-10T16:43:15.903Z,8.73
2019-04-10T16:45:44.465Z,9.07
2019-04-10T16:48:13.462Z,8.40
2019-04-10T16:50:41.925Z,8.50
2019-04-10T16:53:11.636Z,8.93
2019-04-10T16:55:41.027Z,8.77
2019-04-10T16:58:09.794Z,8.63
2019-04-10T17:00:39.598Z,8.37
2019-04-10T17:03:09.326Z,9.60
2019-04-10T17:05:39.660Z,8.60
2019-04-10T17:08:09.562Z,8.87
2019-04-10T17:10:38.707Z,9.23
2019-04-10T17:13:08.835Z,9.10
2019-04-10T17:15:37.566Z,9.07
2019-04-10T17:18:06.644Z,8.80
2019-04-10T17:20:36.215Z,9.40
2019-04-10T17:23:06.413Z,10.03
2019-04-10T17:25:35.938Z,9.67
2019-04-10T17:28:04.503Z,8.63
2019-04-10T17:30:33.853Z,9.27
2019-04-10T17:33:13.168Z,9.30
2019-04-10T17:35:43.355Z,9.17
2019-04-10T17:38:12.146Z,9.60
2019-04-10T17:40:48.226Z,10.07
2019-04-10T17:43:11.113Z,9.17
2019-04-10T17:45:39.601Z,8.20
2019-04-10T17:48:09.389Z,8.60
2019-04-10T17:50:39.358Z,9.40
2019-04-10T17:53:15.221Z,11.37
2019-04-10T17:55:44.689Z,10.13
2019-04-10T17:58:13.653Z,9.70
2019-04-10T18:01:25.036Z,10.33
2019-04-10T18:03:57.178Z,10.17
2019-04-10T18:06:27.681Z,10.00
2019-04-10T18:08:57.046Z,9.67
2019-04-10T18:11:25.596Z,10.20
2019-04-10T18:13:55.351Z,9.87
2019-04-10T18:16:23.817Z,10.63
2019-04-10T18:18:52.233Z,10.67
2019-04-10T18:21:20.659Z,10.73
2019-04-10T18:23:49.537Z,10.93
2019-04-10T18:26:28.586Z,10.07
2019-04-10T18:28:59.454Z,10.50
2019-04-10T18:31:29.470Z,14.63
2019-04-10T18:33:58.706Z,11.20
2019-04-10T18:36:27.916Z,11.90
2019-04-10T18:38:56.332Z,14.27
2019-04-10T18:41:24.763Z,13.67
2019-04-10T18:43:53.174Z,12.30
2019-04-10T18:46:22.427Z,12.53
2019-04-10T18:48:51.386Z,12.77
2019-04-10T18:51:19.949Z,12.70
2019-04-10T18:53:51.158Z,11.37
2019-04-10T18:56:20.805Z,11.77
2019-04-10T18:58:54.970Z,12.07
2019-04-10T19:01:31.417Z,11.80
2019-04-10T19:04:04.536Z,11.50
2019-04-10T19:06:49.713Z,11.13
2019-04-10T19:09:24.569Z,11.50
2019-04-10T19:11:54.800Z,12.23
2019-04-10T19:14:24.663Z,12.43
2019-04-10T19:16:55.150Z,11.57
2019-04-10T19:19:28.291Z,11.27
2019-04-10T19:22:00.056Z,11.73
2019-04-10T19:24:32.396Z,11.37
2019-04-10T19:27:02.135Z,12.23
2019-04-10T19:29:35.717Z,11.43
2019-04-10T19:32:06.269Z,12.13
2019-04-10T19:34:45.819Z,11.87
2019-04-10T19:37:14.603Z,12.20
2019-04-10T19:39:44.798Z,12.50
2019-04-10T19:42:15.339Z,12.47
2019-04-10T19:44:45.578Z,12.67
2019-04-10T19:47:14.765Z,13.53
2019-04-10T19:49:44.556Z,13.67
2019-04-10T19:52:14.311Z,13.63
2019-04-10T19:54:44.250Z,13.50
2019-04-10T19:57:15.334Z,14.20
2019-04-10T19:59:46.041Z,14.10
2019-04-10T20:02:19.056Z,14.03
2019-04-10T20:04:48.614Z,14.13
2019-04-10T20:07:17.297Z,14.87
2019-04-10T20:09:46.441Z,13.30
2019-04-10T20:12:16.063Z,13.40
2019-04-10T20:14:44.803Z,14.13
2019-04-10T20:17:13.558Z,15.37
2019-04-10T20:19:42.590Z,14.00
2019-04-10T20:22:11.206Z,13.20
2019-04-10T20:24:39.617Z,11.77
2019-04-10T20:27:09.921Z,12.83
2019-04-10T20:29:39.331Z,12.80
2019-04-10T20:32:07.965Z,13.37
2019-04-10T20:34:37.783Z,13.70
2019-04-10T20:37:09.593Z,12.53
2019-04-10T20:39:39.252Z,13.40
2019-04-10T20:42:07.822Z,13.00
2019-04-10T20:44:36.636Z,13.67
2019-04-10T20:47:05.104Z,13.47
2019-04-10T20:49:34.251Z,12.97
2019-04-10T20:52:04.142Z,13.57
2019-04-10T20:54:42.724Z,14.27
2019-04-10T20:57:11.157Z,13.47
2019-04-10T20:59:40.437Z,15.23
2019-04-10T21:02:09.722Z,14.70
2019-04-10T21:04:39.536Z,14.63
2019-04-10T21:07:08.449Z,15.00
2019-04-10T21:09:36.897Z,14.00
2019-04-10T21:12:10.473Z,15.10
2019-04-10T21:14:35.926Z,13.73
2019-04-10T21:17:04.824Z,15.20
2019-04-10T21:19:33.499Z,14.23
2019-04-10T21:22:02.069Z,16.30
2019-04-10T21:24:31.474Z,15.50
2019-04-10T21:27:01.219Z,14.30
2019-04-10T21:29:32.024Z,15.83
2019-04-10T21:32:05.188Z,15.07
2019-04-10T21:34:36.919Z,13.57
2019-04-10T21:37:06.097Z,14.03
2019-04-10T21:39:35.974Z,13.97
2019-04-10T21:42:14.823Z,13.23
2019-04-10T21:44:35.136Z,13.33
2019-04-10T21:47:03.893Z,14.53
2019-04-10T21:49:32.416Z,14.23
2019-04-10T21:52:02.077Z,14.87
2019-04-10T21:54:31.374Z,15.73
2019-04-10T21:56:59.912Z,14.07
2019-04-10T21:59:28.993Z,14.37
2019-04-10T22:01:57.581Z,13.73
2019-04-10T22:04:27.270Z,14.27
2019-04-10T22:07:10.024Z,14.50
2019-04-10T22:09:43.257Z,13.73
2019-04-10T22:12:24.014Z,14.93
2019-04-10T22:14:43.913Z,13.73
2019-04-10T22:17:13.131Z,14.03
2019-04-10T22:19:43.000Z,15.10
2019-04-10T22:22:12.803Z,15.63
2019-04-10T22:24:42.653Z,15.83
2019-04-10T22:27:11.968Z,15.13
2019-04-10T22:29:40.454Z,15.77
2019-04-10T22:32:08.998Z,14.60
2019-04-10T22:34:38.401Z,14.40
2019-04-10T22:37:07.264Z,15.13
2019-04-10T22:39:35.924Z,13.23
2019-04-10T22:42:05.359Z,12.40
2019-04-10T22:44:40.219Z,13.13
2019-04-10T22:47:05.097Z,12.03
2019-04-10T22:49:34.874Z,12.13
2019-04-10T22:52:04.614Z,11.50
2019-04-10T22:54:33.200Z,10.63
2019-04-10T22:57:02.607Z,10.73
2019-04-10T22:59:32.446Z,9.60
2019-04-10T23:02:07.390Z,9.30
2019-04-10T23:04:32.573Z,9.47
2019-04-10T23:07:01.760Z,8.77
2019-04-10T23:09:30.590Z,8.00
2019-04-10T23:12:00.195Z,7.83
2019-04-10T23:14:29.018Z,7.93
2019-04-10T23:16:57.742Z,7.53
2019-04-10T23:19:26.227Z,7.60
2019-04-10T23:21:54.701Z,7.47
2019-04-10T23:24:23.519Z,7.53
2019-04-10T23:26:51.939Z,7.77
2019-04-10T23:29:20.386Z,7.80
2019-04-10T23:31:49.792Z,7.93
2019-04-10T23:34:18.880Z,8.17
2019-04-10T23:36:48.636Z,7.57
2019-04-10T23:39:18.260Z,7.93
2019-04-10T23:41:47.649Z,6.90
2019-04-10T23:44:16.844Z,6.97
2019-04-10T23:46:45.465Z,7.10
2019-04-10T23:49:14.130Z,7.17
2019-04-10T23:51:43.283Z,7.33
2019-04-10T23:54:13.149Z,7.33
2019-04-10T23:56:41.978Z,6.83
2019-04-10T23:59:10.733Z,6.90
